Portada
METAR-TAF:

METAR-TAF

Aeroports :

Phitsanulok, Tailàndia

latitud: 16-46-23N, longitud: 100-16-56E, altitud: 47 m

Observació

L'informe es va fer fa 16 minuts, a les 01:00 UTC
Vent 6 kt del Sud-Est, variant entre Est/Sud-Est i Sud
Temperatura 28°C
Humitat 74%
Pressió 1009 hPa
Visibilitat: 8000 m

METAR: VTPP 300100Z 14006KT 110V180 8000 NSC 28/23 Q1009 NOSIG

Hora: 08:16 (01:16 UTC)

Pronòstic

L'informe es va fer fa 2 hores i 16 minuts, a les 23:00 UTC
Pronòstic vàlid del 30 a les 00 UTC al 30 a les 24 UTC
Vent 5 kt del Sud/Sud-Est
Visibilitat: 7000 m
Escasses núvols a una alçada de 3000 ft

TAF: VTPP 292300Z 3000/3024 16005KT 7000 FEW030

Observacions i pronòstics meteorològics de més de 4000 aeroports (METAR i TAF).

Les estacions disponibles són els punts grocs i vermells al mapa.

Posi el ratolí al punt desitjat per veure el nom de l'estació.

Feu clic per veure les observacions i els pronòstics meteorològics.

Per canviar el mapa: feu clic els botons verds amb una creu de color negre per apropar; al botó verd amb un guió per allunyar la imatge; o en les fletxes verdes per a mapes adjacents.


METAR-TAF: